Latest Coastal Weather Observations for Flinders Island Airport

IDV60701

Issued at 7:22 am EDT Tuesday 28 March 2017 (issued every 10 minutes, with the page automatically refreshed every 10 minutes)

About coastal observations | Map of coastal stations | Coastal observations for VIC | Marine services | Other Formats
Station Details ID: 099005 Name: FLINDERS ISLAND AIRPORT Lat: -40.09 Lon: 148.00 Height: 9.0 m
Data from the previous 72 hours. | See also: Recent months at Flinders Island Airport
Date/Time
EDT
Temp
°C
Wind Pressure Rain since
9am
mm
Weather Cloud Vis
km
Sea
Height
m
Swell
Dir  Spd
kts
Gust
kts
hPa Trend Height
m
Period
s
Dir
28/07:00am 17.1 WNW 17 21 1010.9 - 6.6 - Partly cloudy 10 - - - -
28/06:30am 16.8 W 15 20 1010.7 - 6.6 - Partly cloudy 10 - - - -
28/06:00am 17.1 WNW 17 24 1010.5 - 6.6 - Partly cloudy 10 - - - -
28/05:30am 16.8 WNW 15 19 1010.4 - 6.6 - Partly cloudy 10 - - - -
28/05:00am 16.9 WNW 15 19 1010.1 - 6.6 - Partly cloudy 10 - - - -
28/04:30am 16.7 WNW 16 20 1010.0 - 6.6 - Partly cloudy 10 - - - -
28/04:00am 16.9 WNW 16 21 1010.1 - 6.6 - Partly cloudy 10 - - - -
28/03:30am 16.9 WNW 16 20 1010.1 - 6.6 - Partly cloudy 10 - - - -
28/03:00am 17.1 WNW 16 21 1010.1 - 6.6 - Partly cloudy 10 - - - -
28/02:30am 17.1 W 15 19 1010.1 - 6.6 - Partly cloudy 10 - - - -
28/02:00am 17.2 WNW 17 21 1010.1 - 6.6 - - 10 - - - -
28/01:30am 17.4 W 17 22 1010.2 - 6.6 - Partly cloudy 10 - - - -
28/01:00am 17.4 W 16 20 1010.1 - 6.6 - Partly cloudy 10 - - - -
28/12:30am 18.0 W 19 25 1010.0 - 6.6 - Partly cloudy 10 - - - -
28/12:00am 17.9 W 19 25 1010.0 - 6.6 - Mostly cloudy 10 - - - -
 
Date/Time
EDT
Temp
°C
Wind Pressure Rain since
9am
mm
Weather Cloud Vis
km
Sea
Height
m
Swell
Dir  Spd
kts
Gust
kts
hPa Trend Height
m
Period
s
Dir
27/11:30pm 17.9 W 21 28 1009.8 - 6.6 - Partly cloudy 10 - - - -
27/11:00pm 17.8 WNW 20 27 1009.5 - 6.6 - Partly cloudy 10 - - - -
27/10:30pm 17.6 WNW 21 27 1009.4 - 6.6 - Partly cloudy 10 - - - -
27/10:00pm 17.8 W 22 29 1009.2 - 6.6 - Partly cloudy 10 - - - -
27/09:30pm 17.6 WNW 23 30 1008.9 - 6.6 - Partly cloudy 10 - - - -
27/09:18pm 17.4 WNW 22 32 1008.9 - 6.6 - Partly cloudy 10 - - - -
27/09:00pm 17.5 WNW 22 29 1008.5 - 6.6 - Cloudy 10 - - - -
27/08:30pm 17.2 W 21 31 1008.3 - 6.6 - Partly cloudy 10 - - - -
27/08:29pm 17.2 W 21 31 1008.3 - 6.6 - Partly cloudy 10 - - - -
27/08:00pm 17.1 W 21 29 1007.9 - 6.6 - Partly cloudy 10 - - - -
27/07:30pm 17.2 W 26 33 1007.8 - 6.6 - Partly cloudy 10 - - - -
27/07:00pm 16.4 W 22 29 1007.3 - 6.6 - Partly cloudy 10 - - - -
27/06:30pm 15.6 W 25 29 1007.3 - 6.6 - Partly cloudy 9 - - - -
27/06:13pm 15.5 W 25 31 1007.3 - 6.0 - Partly cloudy 9 - - - -
27/06:00pm 15.0 W 28 34 1007.4 - 6.0 Rain Mostly cloudy 4 - - - -
27/05:34pm 15.4 W 27 38 1007.3 - 3.8 - Partly cloudy 4 - - - -
27/05:30pm 15.6 WNW 26 34 1007.0 - 3.2 - Partly cloudy 5 - - - -
27/05:16pm 16.5 W 25 33 1007.0 - 2.0 - Partly cloudy 5 - - - -
27/05:04pm 16.6 W 27 37 1007.0 - 1.4 - Partly cloudy 6 - - - -
27/05:00pm 17.0 W 29 37 1006.5 - 1.4 - Partly cloudy 7 - - - -
27/04:30pm 19.8 W 26 33 1006.3 - 1.2 - Partly cloudy 10 - - - -
27/04:00pm 20.5 WSW 23 30 1005.9 - 1.2 - Partly cloudy 10 - - - -
27/03:39pm 20.8 WSW 27 34 1004.9 - 1.2 - Partly cloudy 10 - - - -
27/03:30pm 20.9 W 33 45 1004.8 - 1.2 - Partly cloudy 10 - - - -
27/03:23pm 21.9 W 29 43 1004.7 - 1.2 - Partly cloudy 10 - - - -
27/03:22pm 22.2 W 27 40 1004.8 - 1.2 - Partly cloudy 10 - - - -
27/03:00pm 24.3 WNW 22 34 1003.6 - 1.2 - Mostly cloudy 10 - - - -
27/02:57pm 24.7 NW 19 32 1003.4 - 1.2 - Cloudy 10 - - - -
27/02:54pm 25.4 NNW 17 27 1002.8 - 1.2 - Cloudy 10 - - - -
27/02:45pm 23.5 NNE 18 28 1001.1 - 1.2 - Cloudy 10 - - - -
27/02:30pm 24.3 NNE 18 25 1000.6 - 1.2 - Cloudy 10 - - - -
27/02:00pm 22.3 NE 17 21 1001.0 - 1.2 - Partly cloudy 10 - - - -
27/01:45pm 23.2 NE 11 19 1002.4 - 0.0 - Partly cloudy 7 - - - -
27/01:30pm 25.3 NNE 5 9 1002.5 - 0.0 - Partly cloudy 10 - - - -
27/01:00pm 25.6 NNE 15 22 1003.1 - 0.0 - Cloudy 10 - - - -
27/12:30pm 26.1 NNE 19 29 1002.4 - 0.0 - Partly cloudy 10 - - - -
27/12:00pm 24.9 NE 19 26 1002.6 - 0.0 - Cloudy 10 - - - -
27/11:30am 25.7 NE 19 26 1003.2 - 0.0 - - 10 - - - -
27/11:00am 25.5 NNE 20 27 1004.0 - 0.0 - - 10 - - - -
27/10:30am 24.5 NE 22 26 1004.2 - 0.0 - Partly cloudy 10 - - - -
27/10:00am 24.0 NE 19 25 1005.1 - 0.0 - - 10 - - - -
27/09:30am 22.4 NNE 19 26 1005.9 - 0.0 - - 10 - - - -
27/09:00am 22.5 NNE 19 26 1006.3 - 0.0 - - 10 - - - -
27/08:30am 21.6 NE 18 23 1006.3 - 0.0 - - 10 - - - -
27/08:00am 20.8 NE 19 22 1006.5 - 0.0 - - 10 - - - -
27/07:30am 20.4 NE 19 23 1006.9 - 0.0 - - 10 - - - -
27/07:00am 20.4 NE 18 24 1006.9 - 0.0 - - 10 - - - -
27/06:30am 20.7 NNE 19 22 1007.3 - 0.0 - - 10 - - - -
27/06:00am 20.7 NE 19 24 1007.8 - 0.0 - - 10 - - - -
27/05:30am 20.8 NE 18 24 1007.7 - 0.0 - - 10 - - - -
27/05:00am 20.6 NE 18 22 1007.9 - 0.0 - - 10 - - - -
27/04:30am 20.8 NE 17 23 1008.3 - 0.0 - - 10 - - - -
27/04:00am 20.8 NE 18 24 1008.6 - 0.0 - - 10 - - - -
27/03:30am 20.6 NNE 17 23 1009.5 - 0.0 - - 10 - - - -
27/03:00am 20.5 NNE 18 23 1010.0 - 0.0 - - 10 - - - -
27/02:30am 20.0 NE 14 20 1010.4 - 0.0 - Partly cloudy 10 - - - -
27/02:00am 19.7 ENE 12 17 1011.1 - 0.0 - Partly cloudy 10 - - - -
27/01:30am 20.2 NE 17 20 1011.8 - 0.0 - Partly cloudy 10 - - - -
27/01:00am 20.1 ENE 16 20 1012.1 - 0.0 - - 10 - - - -
27/12:30am 20.0 ENE 15 23 1012.6 - 0.0 - Partly cloudy 10 - - - -
27/12:00am 19.4 ENE 15 18 1013.0 - 0.0 - - 10 - - - -
 
Date/Time
EDT
Temp
°C
Wind Pressure Rain since
9am
mm
Weather Cloud Vis
km
Sea
Height
m
Swell
Dir  Spd
kts
Gust
kts
hPa Trend Height
m
Period
s
Dir
26/11:30pm 19.1 ENE 13 18 1013.4 - 0.0 - - 10 - - - -
26/11:00pm 19.1 NE 13 16 1013.9 - 0.0 - - 10 - - - -
26/10:30pm 19.1 NE 10 13 1013.9 - 0.0 - - 10 - - - -
26/10:00pm 18.9 ENE 6 7 1014.1 - 0.0 - - 10 - - - -
26/09:30pm 18.7 E 5 7 1014.3 - 0.0 - - 10 - - - -
26/09:00pm 18.0 CALM 0 0 1014.4 - 0.0 - - 10 - - - -
26/08:30pm 17.2 ENE 2 5 1014.2 - 0.0 - - 10 - - - -
26/08:00pm 18.7 E 5 7 1014.2 - 0.0 - - 10 - - - -
26/07:46pm 19.2 E 6 7 1014.0 - 0.0 - Partly cloudy 10 - - - -
26/07:30pm 19.6 E 6 9 1013.9 - 0.0 - Partly cloudy 10 - - - -
26/07:13pm 20.1 E 7 8 1013.8 - 0.0 - Partly cloudy 10 - - - -
26/07:00pm 20.2 E 7 9 1013.7 - 0.0 - Partly cloudy 10 - - - -
26/06:48pm 20.5 E 8 11 1013.7 - 0.0 - Partly cloudy 10 - - - -
26/06:30pm 21.1 E 8 13 1013.6 - 0.0 - Partly cloudy 10 - - - -
26/06:13pm 22.1 E 9 13 1013.5 - 0.0 - Partly cloudy 10 - - - -
26/06:00pm 22.0 E 8 12 1013.3 - 0.0 - Partly cloudy 10 - - - -
26/05:30pm 22.3 SW 6 8 1013.3 - 0.0 - Partly cloudy 10 - - - -
26/05:00pm 22.3 SW 5 6 1013.3 - 0.0 - Partly cloudy 10 - - - -
26/04:30pm 21.3 SW 5 7 1013.5 - 0.0 - Partly cloudy 10 - - - -
26/04:00pm 21.3 SW 6 8 1013.5 - 0.0 - Partly cloudy 10 - - - -
26/03:30pm 21.0 SW 7 8 1013.8 - 0.0 - Partly cloudy 10 - - - -
26/03:00pm 21.5 SW 7 9 1013.7 - 0.0 - - 10 - - - -
26/02:30pm 21.3 SW 7 9 1013.9 - 0.0 - - 10 - - - -
26/02:00pm 21.4 SW 7 8 1014.3 - 0.0 - - 10 - - - -
26/01:30pm 21.2 SW 7 9 1014.6 - 0.0 - - 10 - - - -
26/01:00pm 21.7 WSW 7 9 1014.9 - 0.0 - - 10 - - - -
26/12:30pm 21.0 WSW 8 9 1015.1 - 0.0 - Partly cloudy 10 - - - -
26/12:00pm 21.0 SW 8 9 1015.1 - 0.0 - Partly cloudy 10 - - - -
26/11:30am 20.6 WSW 6 7 1015.1 - 0.0 - Partly cloudy 10 - - - -
26/11:00am 20.8 WSW 6 7 1015.2 - 0.0 - - 10 - - - -
26/10:30am 21.9 W 5 7 1015.0 - 0.0 - - 10 - - - -
26/10:00am 20.3 NE 4 6 1015.0 - 0.0 - - 10 - - - -
26/09:30am 18.4 NE 5 6 1014.8 - 0.0 - - 10 - - - -
26/09:00am 16.7 ENE 5 6 1014.7 - 0.2 - - 10 - - - -
26/08:30am 16.6 ENE 4 5 1014.5 - 0.2 - - 10 - - - -
26/08:00am 14.6 ENE 6 6 1014.3 - 0.2 - - 10 - - - -
26/07:30am 13.1 ENE 6 7 1013.8 - 0.2 - - 10 - - - -
26/07:00am 12.9 NE 4 5 1013.6 - 0.2 - - 10 - - - -
26/06:30am 13.7 ENE 5 6 1013.0 - 0.2 - Partly cloudy 10 - - - -
26/06:00am 13.5 ENE 5 7 1012.8 - 0.2 - Partly cloudy 10 - - - -
26/05:30am 13.7 ENE 5 5 1012.7 - 0.2 - Partly cloudy 10 - - - -
26/05:00am 13.9 ENE 6 7 1012.6 - 0.2 - Partly cloudy 10 - - - -
26/04:30am 14.0 ENE 6 7 1012.5 - 0.2 - Partly cloudy 10 - - - -
26/04:00am 14.3 ENE 6 6 1012.5 - 0.2 - Partly cloudy 10 - - - -
26/03:30am 14.0 ENE 5 6 1012.7 - 0.2 - Partly cloudy 10 - - - -
26/03:08am 13.7 ENE 5 5 1012.7 - 0.2 - - 9 - - - -
26/03:00am 13.7 ENE 5 6 1012.7 - 0.2 - - 7 - - - -
26/02:30am 14.5 ENE 5 6 1012.8 - 0.2 - Partly cloudy 2 - - - -
26/02:17am 15.1 ENE 5 6 1012.8 - 0.2 - Partly cloudy 0.5 - - - -
26/02:00am 16.1 NE 6 6 1012.9 - 0.2 - Partly cloudy 0.9 - - - -
26/01:35am 15.9 NE 6 7 1013.0 - 0.2 - Partly cloudy 4 - - - -
26/01:30am 15.3 ENE 6 7 1012.9 - 0.2 - Partly cloudy 10 - - - -
26/01:07am 14.3 ENE 6 6 1013.1 - 0.2 - Partly cloudy 10 - - - -
26/01:00am 14.4 ENE 6 7 1013.1 - 0.2 - Partly cloudy 10 - - - -
26/12:36am 14.8 NE 5 5 1013.2 - 0.2 - Partly cloudy 10 - - - -
26/12:30am 14.9 NE 5 6 1013.2 - 0.2 - Partly cloudy 10 - - - -
26/12:00am 15.5 NE 5 6 1013.2 - 0.2 - - 10 - - - -
 
Date/Time
EDT
Temp
°C
Wind Pressure Rain since
9am
mm
Weather Cloud Vis
km
Sea
Height
m
Swell
Dir  Spd
kts
Gust
kts
hPa Trend Height
m
Period
s
Dir
25/11:30pm 14.6 ENE 5 5 1013.3 - 0.2 - - 10 - - - -
25/11:00pm 15.5 ENE 5 6 1013.2 - 0.2 - Partly cloudy 10 - - - -
25/10:30pm 16.4 NE 5 5 1013.2 - 0.2 - Partly cloudy 10 - - - -
25/10:00pm 17.2 NNW 1 4 1013.0 - 0.2 - Cloudy 10 - - - -
25/09:30pm 17.0 NE 4 5 1012.8 - 0.2 - Partly cloudy 10 - - - -
25/09:00pm 17.3 E 2 5 1012.3 - 0.2 - - 10 - - - -
25/08:30pm 18.5 CALM 0 0 1012.2 - 0.2 - Partly cloudy 10 - - - -
25/08:00pm 19.3 NW 4 5 1011.9 - 0.2 - Cloudy 10 - - - -
25/07:30pm 19.6 N 4 5 1011.6 - 0.2 - Cloudy 10 - - - -
25/07:00pm 19.9 NE 4 4 1011.3 - 0.2 - Cloudy 10 - - - -
25/06:30pm 20.1 CALM 0 0 1011.3 - 0.2 - Partly cloudy 10 - - - -
25/06:16pm 20.0 CALM 0 0 1011.3 - 0.2 - Partly cloudy 10 - - - -
25/06:00pm 19.9 S 3 6 1011.3 - 0.2 Recent precip. Cloudy 10 - - - -
25/05:56pm 19.9 SSE 2 6 1011.3 - 0.2 - Partly cloudy 10 - - - -
25/05:30pm 20.0 NW 4 6 1011.3 - 0.0 - Partly cloudy 10 - - - -
25/05:00pm 20.1 WSW 9 15 1011.6 - 0.0 - Partly cloudy 10 - - - -
25/04:30pm 22.2 WSW 8 10 1011.4 - 0.0 - Partly cloudy 10 - - - -
25/04:00pm 23.1 NNE 4 6 1011.0 - 0.0 - Partly cloudy 10 - - - -
25/03:30pm 23.1 NE 7 9 1011.2 - 0.0 - Partly cloudy 10 - - - -
25/03:00pm 23.0 NE 7 10 1011.5 - 0.0 - Mostly cloudy 10 - - - -
25/02:30pm 22.5 NE 10 14 1011.6 - 0.0 - Partly cloudy 10 - - - -
25/02:00pm 22.5 NE 10 15 1011.9 - 0.0 - Partly cloudy 10 - - - -
25/01:30pm 23.1 NE 12 15 1012.4 - 0.0 - Partly cloudy 10 - - - -
25/01:00pm 22.5 NE 13 17 1012.7 - 0.0 - Partly cloudy 10 - - - -
25/12:30pm 22.6 NE 14 18 1012.8 - 0.0 - Partly cloudy 10 - - - -
25/12:00pm 21.5 NE 14 21 1013.1 - 0.0 - Cloudy 10 - - - -
25/11:30am 20.7 ENE 14 19 1013.5 - 0.0 - Cloudy 10 - - - -
25/11:00am 20.9 NE 14 18 1014.1 - 0.0 - - 10 - - - -
25/10:30am 20.6 ENE 14 19 1014.2 - 0.0 - Partly cloudy 10 - - - -
25/10:00am 20.2 ENE 10 15 1014.7 - 0.0 - Cloudy 10 - - - -
25/09:30am 19.8 ENE 7 10 1014.7 - 0.0 - Partly cloudy 10 - - - -
25/09:00am 19.7 ENE 7 9 1014.5 - 0.0 - Cloudy 10 - - - -
25/08:30am 19.2 ENE 8 13 1014.1 - 0.0 - Cloudy 10 - - - -
25/08:00am 18.9 E 9 12 1013.9 - 0.0 - Partly cloudy 10 - - - -
25/07:30am 18.4 ENE 13 17 1013.6 - 0.0 - Cloudy 10 - - - -

Other Formats:

Comma delimited format used in spreadsheet applications
http://www.bom.gov.au/fwo/IDV60701/IDV60701.94980.axf

JavaScript Object Notation format (JSON) in row-major order
http://www.bom.gov.au/fwo/IDV60701/IDV60701.94980.json